Rhonesboro, Texas
Current Conditions -  °F | °C
As of 12:55 AM on Sunday 21 Dec 2014 (Local Time) from KJDD Reporting Station
Haze Haze  
Wind Chill: 43°   Ceiling: 2800
Heat Index: 43°   Visibility: 2mi
Dew Point: 43°   Wind: 0mph
Humidity: 100%   Direction: NA
Pressure: 30.2"   Gusts: NA
Location:  32.6267°N, 95.0888°W
Report Text: KJDD 210655Z AUTO 00000KT 2SM BR OVC028 06/06 A3020 RMK AO2
Loading
Personal Weather Stations






























Interactive Weather Map New forecast layout! Learn more

10-Day Weather Forecast

Advertisements
Track Severe Weather on mobile